sensor_id;sensor_type;location;lat;lon;timestamp;P1;durP1;ratioP1;P2;durP2;ratioP2
27957;SDS011;15295;42.658;23.374;2022-09-29T00:01:07;9.55;;;4.22;;
27957;SDS011;15295;42.658;23.374;2022-09-29T00:03:32;10.52;;;4.43;;
27957;SDS011;15295;42.658;23.374;2022-09-29T00:05:58;13.98;;;4.28;;
27957;SDS011;15295;42.658;23.374;2022-09-29T00:08:25;9.50;;;4.50;;
27957;SDS011;15295;42.658;23.374;2022-09-29T00:10:52;11.90;;;4.85;;
27957;SDS011;15295;42.658;23.374;2022-09-29T00:13:18;8.88;;;4.72;;
27957;SDS011;15295;42.658;23.374;2022-09-29T00:15:44;15.43;;;4.40;;
27957;SDS011;15295;42.658;23.374;2022-09-29T00:18:09;8.15;;;4.20;;
27957;SDS011;15295;42.658;23.374;2022-09-29T00:20:35;8.02;;;3.70;;
27957;SDS011;15295;42.658;23.374;2022-09-29T00:23:02;11.90;;;4.00;;
27957;SDS011;15295;42.658;23.374;2022-09-29T00:25:28;7.50;;;3.60;;
27957;SDS011;15295;42.658;23.374;2022-09-29T00:27:54;12.85;;;3.80;;
27957;SDS011;15295;42.658;23.374;2022-09-29T00:30:19;8.05;;;3.65;;
27957;SDS011;15295;42.658;23.374;2022-09-29T00:32:44;9.50;;;3.53;;
27957;SDS011;15295;42.658;23.374;2022-09-29T00:35:10;9.15;;;3.55;;
27957;SDS011;15295;42.658;23.374;2022-09-29T00:37:35;13.70;;;3.95;;
27957;SDS011;15295;42.658;23.374;2022-09-29T00:40:02;8.68;;;4.20;;
27957;SDS011;15295;42.658;23.374;2022-09-29T00:42:28;7.78;;;3.22;;
27957;SDS011;15295;42.658;23.374;2022-09-29T00:45:13;5.47;;;3.22;;
27957;SDS011;15295;42.658;23.374;2022-09-29T00:47:44;9.93;;;3.97;;
27957;SDS011;15295;42.658;23.374;2022-09-29T00:50:15;9.45;;;4.18;;
27957;SDS011;15295;42.658;23.374;2022-09-29T00:52:48;9.23;;;3.60;;
27957;SDS011;15295;42.658;23.374;2022-09-29T00:57:56;9.38;;;3.90;;
27957;SDS011;15295;42.658;23.374;2022-09-29T01:00:28;9.65;;;3.53;;
27957;SDS011;15295;42.658;23.374;2022-09-29T01:02:56;9.32;;;3.47;;
27957;SDS011;15295;42.658;23.374;2022-09-29T01:05:32;8.43;;;3.80;;
27957;SDS011;15295;42.658;23.374;2022-09-29T01:08:01;10.35;;;4.03;;
27957;SDS011;15295;42.658;23.374;2022-09-29T01:10:36;8.98;;;3.95;;
27957;SDS011;15295;42.658;23.374;2022-09-29T01:13:04;13.23;;;4.00;;
27957;SDS011;15295;42.658;23.374;2022-09-29T01:15:30;8.18;;;3.58;;
27957;SDS011;15295;42.658;23.374;2022-09-29T01:17:56;8.40;;;3.42;;
27957;SDS011;15295;42.658;23.374;2022-09-29T01:20:22;8.68;;;3.78;;
27957;SDS011;15295;42.658;23.374;2022-09-29T01:33:43;8.93;;;4.35;;
27957;SDS011;15295;42.658;23.374;2022-09-29T01:41:49;10.40;;;4.28;;
27957;SDS011;15295;42.658;23.374;2022-09-29T01:49:26;10.40;;;4.72;;
27957;SDS011;15295;42.658;23.374;2022-09-29T01:51:58;14.02;;;4.13;;
27957;SDS011;15295;42.658;23.374;2022-09-29T02:00:08;9.40;;;3.85;;
27957;SDS011;15295;42.658;23.374;2022-09-29T02:02:38;9.07;;;4.13;;
27957;SDS011;15295;42.658;23.374;2022-09-29T02:05:30;11.43;;;4.45;;
27957;SDS011;15295;42.658;23.374;2022-09-29T02:08:27;11.43;;;4.82;;
27957;SDS011;15295;42.658;23.374;2022-09-29T02:11:01;7.57;;;3.90;;
27957;SDS011;15295;42.658;23.374;2022-09-29T02:13:30;10.40;;;3.85;;
27957;SDS011;15295;42.658;23.374;2022-09-29T02:16:00;8.05;;;3.88;;
27957;SDS011;15295;42.658;23.374;2022-09-29T02:18:32;7.85;;;3.78;;
27957;SDS011;15295;42.658;23.374;2022-09-29T02:21:05;9.88;;;4.63;;
27957;SDS011;15295;42.658;23.374;2022-09-29T02:23:30;5.32;;;3.50;;
27957;SDS011;15295;42.658;23.374;2022-09-29T02:25:56;4.97;;;3.20;;
27957;SDS011;15295;42.658;23.374;2022-09-29T02:28:24;8.48;;;3.28;;
27957;SDS011;15295;42.658;23.374;2022-09-29T02:30:49;8.80;;;3.60;;
27957;SDS011;15295;42.658;23.374;2022-09-29T02:33:25;6.95;;;3.20;;
27957;SDS011;15295;42.658;23.374;2022-09-29T02:38:42;8.07;;;3.00;;
27957;SDS011;15295;42.658;23.374;2022-09-29T02:41:20;6.72;;;3.03;;
27957;SDS011;15295;42.658;23.374;2022-09-29T02:57:29;7.05;;;3.50;;
27957;SDS011;15295;42.658;23.374;2022-09-29T03:02:29;5.28;;;3.28;;
27957;SDS011;15295;42.658;23.374;2022-09-29T03:04:54;7.30;;;3.15;;
27957;SDS011;15295;42.658;23.374;2022-09-29T03:07:20;5.13;;;3.50;;
27957;SDS011;15295;42.658;23.374;2022-09-29T03:09:46;10.25;;;3.80;;
27957;SDS011;15295;42.658;23.374;2022-09-29T03:12:11;9.52;;;3.33;;
27957;SDS011;15295;42.658;23.374;2022-09-29T03:14:37;7.07;;;4.00;;
27957;SDS011;15295;42.658;23.374;2022-09-29T03:17:02;5.72;;;3.22;;
27957;SDS011;15295;42.658;23.374;2022-09-29T03:19:28;7.15;;;3.10;;
27957;SDS011;15295;42.658;23.374;2022-09-29T03:21:53;6.47;;;3.70;;
27957;SDS011;15295;42.658;23.374;2022-09-29T03:24:19;10.43;;;3.90;;
27957;SDS011;15295;42.658;23.374;2022-09-29T03:26:44;6.60;;;2.95;;
27957;SDS011;15295;42.658;23.374;2022-09-29T03:29:10;7.35;;;3.85;;
27957;SDS011;15295;42.658;23.374;2022-09-29T03:31:35;8.07;;;3.38;;
27957;SDS011;15295;42.658;23.374;2022-09-29T03:34:04;9.23;;;3.60;;
27957;SDS011;15295;42.658;23.374;2022-09-29T03:36:29;12.43;;;3.85;;
27957;SDS011;15295;42.658;23.374;2022-09-29T03:38:54;10.35;;;3.50;;
27957;SDS011;15295;42.658;23.374;2022-09-29T03:41:20;13.95;;;3.83;;
27957;SDS011;15295;42.658;23.374;2022-09-29T03:43:45;9.20;;;3.92;;
27957;SDS011;15295;42.658;23.374;2022-09-29T03:46:11;8.77;;;4.05;;
27957;SDS011;15295;42.658;23.374;2022-09-29T03:48:36;14.88;;;3.83;;
27957;SDS011;15295;42.658;23.374;2022-09-29T03:51:03;12.35;;;3.88;;
27957;SDS011;15295;42.658;23.374;2022-09-29T03:53:30;10.38;;;3.72;;
27957;SDS011;15295;42.658;23.374;2022-09-29T03:55:57;12.07;;;4.60;;
27957;SDS011;15295;42.658;23.374;2022-09-29T03:58:22;10.15;;;4.53;;
27957;SDS011;15295;42.658;23.374;2022-09-29T04:00:48;11.57;;;4.40;;
27957;SDS011;15295;42.658;23.374;2022-09-29T04:03:23;10.40;;;4.40;;
27957;SDS011;15295;42.658;23.374;2022-09-29T04:14:42;9.23;;;5.32;;
27957;SDS011;15295;42.658;23.374;2022-09-29T04:20:24;14.18;;;5.65;;
27957;SDS011;15295;42.658;23.374;2022-09-29T04:26:19;14.70;;;5.25;;
27957;SDS011;15295;42.658;23.374;2022-09-29T04:31:48;9.15;;;5.00;;
27957;SDS011;15295;42.658;23.374;2022-09-29T04:34:32;8.73;;;5.33;;
27957;SDS011;15295;42.658;23.374;2022-09-29T04:38:01;13.63;;;5.85;;
27957;SDS011;15295;42.658;23.374;2022-09-29T04:43:49;9.30;;;4.95;;
27957;SDS011;15295;42.658;23.374;2022-09-29T04:47:14;9.38;;;4.72;;
27957;SDS011;15295;42.658;23.374;2022-09-29T04:55:51;15.93;;;5.30;;
27957;SDS011;15295;42.658;23.374;2022-09-29T04:58:19;12.32;;;5.45;;
27957;SDS011;15295;42.658;23.374;2022-09-29T05:01:08;20.83;;;7.22;;
27957;SDS011;15295;42.658;23.374;2022-09-29T05:03:40;17.45;;;6.45;;
27957;SDS011;15295;42.658;23.374;2022-09-29T05:13:26;18.73;;;6.55;;
27957;SDS011;15295;42.658;23.374;2022-09-29T05:19:41;12.93;;;6.05;;
27957;SDS011;15295;42.658;23.374;2022-09-29T05:23:12;21.38;;;6.15;;
27957;SDS011;15295;42.658;23.374;2022-09-29T05:26:23;15.32;;;6.13;;
27957;SDS011;15295;42.658;23.374;2022-09-29T05:29:08;24.63;;;7.50;;
27957;SDS011;15295;42.658;23.374;2022-09-29T05:32:07;10.55;;;5.93;;
27957;SDS011;15295;42.658;23.374;2022-09-29T05:34:56;16.13;;;5.70;;
27957;SDS011;15295;42.658;23.374;2022-09-29T05:37:44;18.73;;;5.20;;
27957;SDS011;15295;42.658;23.374;2022-09-29T05:44:12;17.33;;;5.85;;
27957;SDS011;15295;42.658;23.374;2022-09-29T05:47:16;11.32;;;4.10;;
27957;SDS011;15295;42.658;23.374;2022-09-29T05:53:06;9.88;;;4.93;;
27957;SDS011;15295;42.658;23.374;2022-09-29T05:56:34;15.32;;;4.88;;
27957;SDS011;15295;42.658;23.374;2022-09-29T06:00:10;19.77;;;5.38;;
27957;SDS011;15295;42.658;23.374;2022-09-29T06:09:37;16.33;;;5.40;;
27957;SDS011;15295;42.658;23.374;2022-09-29T06:25:26;14.45;;;5.13;;
27957;SDS011;15295;42.658;23.374;2022-09-29T06:27:59;15.48;;;5.22;;
27957;SDS011;15295;42.658;23.374;2022-09-29T06:38:57;23.15;;;7.78;;
27957;SDS011;15295;42.658;23.374;2022-09-29T06:41:30;9.73;;;4.25;;
27957;SDS011;15295;42.658;23.374;2022-09-29T07:37:28;40.83;;;28.80;;
27957;SDS011;15295;42.658;23.374;2022-09-29T07:39:54;12.82;;;4.47;;
27957;SDS011;15295;42.658;23.374;2022-09-29T08:35:54;10.00;;;3.67;;
27957;SDS011;15295;42.658;23.374;2022-09-29T08:38:48;40.30;;;28.45;;
27957;SDS011;15295;42.658;23.374;2022-09-29T08:41:49;35.13;;;20.92;;
27957;SDS011;15295;42.658;23.374;2022-09-29T08:47:42;19.20;;;9.25;;
27957;SDS011;15295;42.658;23.374;2022-09-29T08:50:27;12.43;;;3.95;;
27957;SDS011;15295;42.658;23.374;2022-09-29T09:33:03;8.02;;;2.47;;
27957;SDS011;15295;42.658;23.374;2022-09-29T10:03:08;8.60;;;4.55;;
27957;SDS011;15295;42.658;23.374;2022-09-29T10:05:54;8.27;;;2.33;;
27957;SDS011;15295;42.658;23.374;2022-09-29T10:10:54;9.93;;;2.22;;
27957;SDS011;15295;42.658;23.374;2022-09-29T10:13:22;5.68;;;2.00;;
27957;SDS011;15295;42.658;23.374;2022-09-29T10:23:57;5.60;;;1.90;;
27957;SDS011;15295;42.658;23.374;2022-09-29T10:26:25;3.72;;;2.03;;
27957;SDS011;15295;42.658;23.374;2022-09-29T10:28:58;8.00;;;4.00;;
27957;SDS011;15295;42.658;23.374;2022-09-29T10:31:30;6.35;;;2.00;;
27957;SDS011;15295;42.658;23.374;2022-09-29T10:39:31;5.88;;;3.03;;
27957;SDS011;15295;42.658;23.374;2022-09-29T10:41:57;8.13;;;2.00;;
27957;SDS011;15295;42.658;23.374;2022-09-29T10:44:23;5.28;;;2.65;;
27957;SDS011;15295;42.658;23.374;2022-09-29T10:46:55;5.82;;;2.10;;
27957;SDS011;15295;42.658;23.374;2022-09-29T10:49:22;10.80;;;2.80;;
27957;SDS011;15295;42.658;23.374;2022-09-29T10:54:28;4.75;;;2.80;;
27957;SDS011;15295;42.658;23.374;2022-09-29T10:56:57;11.23;;;3.70;;
27957;SDS011;15295;42.658;23.374;2022-09-29T10:59:34;10.05;;;3.50;;
27957;SDS011;15295;42.658;23.374;2022-09-29T11:02:00;13.52;;;3.17;;
27957;SDS011;15295;42.658;23.374;2022-09-29T11:04:32;15.73;;;10.18;;
27957;SDS011;15295;42.658;23.374;2022-09-29T11:07:08;5.45;;;2.97;;
27957;SDS011;15295;42.658;23.374;2022-09-29T11:09:37;5.40;;;2.20;;
27957;SDS011;15295;42.658;23.374;2022-09-29T11:12:04;7.30;;;2.60;;
27957;SDS011;15295;42.658;23.374;2022-09-29T11:14:31;10.45;;;2.50;;
27957;SDS011;15295;42.658;23.374;2022-09-29T11:17:22;6.22;;;2.65;;
27957;SDS011;15295;42.658;23.374;2022-09-29T11:19:57;5.30;;;2.17;;
27957;SDS011;15295;42.658;23.374;2022-09-29T11:31:20;6.57;;;3.15;;
27957;SDS011;15295;42.658;23.374;2022-09-29T11:34:00;5.43;;;2.58;;
27957;SDS011;15295;42.658;23.374;2022-09-29T11:39:18;6.50;;;2.80;;
27957;SDS011;15295;42.658;23.374;2022-09-29T11:42:03;18.88;;;7.85;;
27957;SDS011;15295;42.658;23.374;2022-09-29T11:47:39;5.20;;;2.58;;
27957;SDS011;15295;42.658;23.374;2022-09-29T11:50:15;7.47;;;2.78;;
27957;SDS011;15295;42.658;23.374;2022-09-29T12:03:46;3.90;;;1.98;;
27957;SDS011;15295;42.658;23.374;2022-09-29T12:14:45;8.82;;;2.75;;
27957;SDS011;15295;42.658;23.374;2022-09-29T12:17:22;4.10;;;2.15;;
27957;SDS011;15295;42.658;23.374;2022-09-29T12:19:57;5.18;;;2.50;;
27957;SDS011;15295;42.658;23.374;2022-09-29T12:22:30;2.97;;;1.80;;
27957;SDS011;15295;42.658;23.374;2022-09-29T12:24:56;3.45;;;1.48;;
27957;SDS011;15295;42.658;23.374;2022-09-29T12:30:20;5.25;;;2.47;;
27957;SDS011;15295;42.658;23.374;2022-09-29T12:38:29;6.57;;;1.45;;
27957;SDS011;15295;42.658;23.374;2022-09-29T12:46:18;3.88;;;1.48;;
27957;SDS011;15295;42.658;23.374;2022-09-29T12:48:57;5.68;;;1.58;;
27957;SDS011;15295;42.658;23.374;2022-09-29T12:51:32;1.98;;;1.48;;
27957;SDS011;15295;42.658;23.374;2022-09-29T12:56:35;6.18;;;1.67;;
27957;SDS011;15295;42.658;23.374;2022-09-29T12:59:48;2.45;;;1.42;;
27957;SDS011;15295;42.658;23.374;2022-09-29T13:16:05;2.20;;;1.58;;
27957;SDS011;15295;42.658;23.374;2022-09-29T13:21:35;6.03;;;1.73;;
27957;SDS011;15295;42.658;23.374;2022-09-29T13:24:26;3.65;;;1.90;;
27957;SDS011;15295;42.658;23.374;2022-09-29T13:30:13;5.03;;;1.63;;
27957;SDS011;15295;42.658;23.374;2022-09-29T13:32:39;6.22;;;1.30;;
27957;SDS011;15295;42.658;23.374;2022-09-29T13:35:12;3.42;;;1.70;;
27957;SDS011;15295;42.658;23.374;2022-09-29T13:37:51;3.63;;;1.77;;
27957;SDS011;15295;42.658;23.374;2022-09-29T13:40:26;5.60;;;2.35;;
27957;SDS011;15295;42.658;23.374;2022-09-29T13:42:54;5.22;;;2.60;;
27957;SDS011;15295;42.658;23.374;2022-09-29T13:47:51;3.88;;;1.48;;
27957;SDS011;15295;42.658;23.374;2022-09-29T14:00:58;2.13;;;1.60;;
27957;SDS011;15295;42.658;23.374;2022-09-29T14:03:35;3.53;;;2.05;;
27957;SDS011;15295;42.658;23.374;2022-09-29T14:06:05;4.35;;;2.00;;
27957;SDS011;15295;42.658;23.374;2022-09-29T14:11:34;8.15;;;1.83;;
27957;SDS011;15295;42.658;23.374;2022-09-29T14:17:16;6.10;;;1.83;;
27957;SDS011;15295;42.658;23.374;2022-09-29T14:24:54;4.00;;;2.10;;
27957;SDS011;15295;42.658;23.374;2022-09-29T14:35:41;6.97;;;2.78;;
27957;SDS011;15295;42.658;23.374;2022-09-29T14:38:25;3.92;;;2.25;;
27957;SDS011;15295;42.658;23.374;2022-09-29T14:41:14;9.38;;;3.25;;
27957;SDS011;15295;42.658;23.374;2022-09-29T14:43:49;9.93;;;3.92;;
27957;SDS011;15295;42.658;23.374;2022-09-29T14:49:43;6.78;;;3.55;;
27957;SDS011;15295;42.658;23.374;2022-09-29T14:55:57;7.82;;;3.20;;
27957;SDS011;15295;42.658;23.374;2022-09-29T14:58:53;5.50;;;3.00;;
27957;SDS011;15295;42.658;23.374;2022-09-29T15:01:33;12.18;;;5.03;;
27957;SDS011;15295;42.658;23.374;2022-09-29T15:04:05;8.77;;;5.20;;
27957;SDS011;15295;42.658;23.374;2022-09-29T15:06:42;11.27;;;6.95;;
27957;SDS011;15295;42.658;23.374;2022-09-29T15:09:21;11.38;;;6.03;;
27957;SDS011;15295;42.658;23.374;2022-09-29T15:11:55;8.30;;;4.72;;
27957;SDS011;15295;42.658;23.374;2022-09-29T15:14:29;14.23;;;4.70;;
27957;SDS011;15295;42.658;23.374;2022-09-29T15:22:34;8.20;;;4.72;;
27957;SDS011;15295;42.658;23.374;2022-09-29T15:25:20;11.38;;;5.63;;
27957;SDS011;15295;42.658;23.374;2022-09-29T15:27:54;34.80;;;19.33;;
27957;SDS011;15295;42.658;23.374;2022-09-29T15:30:23;23.92;;;12.50;;
27957;SDS011;15295;42.658;23.374;2022-09-29T15:32:50;10.82;;;5.65;;
27957;SDS011;15295;42.658;23.374;2022-09-29T15:35:21;10.77;;;5.00;;
27957;SDS011;15295;42.658;23.374;2022-09-29T15:40:15;13.48;;;6.28;;
27957;SDS011;15295;42.658;23.374;2022-09-29T15:42:45;8.00;;;4.32;;
27957;SDS011;15295;42.658;23.374;2022-09-29T15:45:16;11.02;;;5.03;;
27957;SDS011;15295;42.658;23.374;2022-09-29T15:47:46;13.80;;;5.38;;
27957;SDS011;15295;42.658;23.374;2022-09-29T15:50:16;10.18;;;5.28;;
27957;SDS011;15295;42.658;23.374;2022-09-29T15:52:44;7.88;;;5.20;;
27957;SDS011;15295;42.658;23.374;2022-09-29T15:55:14;7.60;;;5.53;;
27957;SDS011;15295;42.658;23.374;2022-09-29T15:57:50;10.73;;;4.75;;
27957;SDS011;15295;42.658;23.374;2022-09-29T16:03:05;10.23;;;6.10;;
27957;SDS011;15295;42.658;23.374;2022-09-29T16:05:32;13.90;;;7.63;;
27957;SDS011;15295;42.658;23.374;2022-09-29T16:08:12;9.65;;;4.90;;
27957;SDS011;15295;42.658;23.374;2022-09-29T16:13:29;14.98;;;6.57;;
27957;SDS011;15295;42.658;23.374;2022-09-29T16:16:04;19.67;;;8.57;;
27957;SDS011;15295;42.658;23.374;2022-09-29T16:21:11;20.52;;;10.70;;
27957;SDS011;15295;42.658;23.374;2022-09-29T16:26:36;9.50;;;5.78;;
27957;SDS011;15295;42.658;23.374;2022-09-29T16:31:33;15.88;;;6.95;;
27957;SDS011;15295;42.658;23.374;2022-09-29T16:36:51;8.88;;;5.28;;
27957;SDS011;15295;42.658;23.374;2022-09-29T16:39:25;17.15;;;7.97;;
27957;SDS011;15295;42.658;23.374;2022-09-29T16:41:54;16.48;;;7.30;;
27957;SDS011;15295;42.658;23.374;2022-09-29T16:44:28;11.52;;;6.60;;
27957;SDS011;15295;42.658;23.374;2022-09-29T16:47:15;9.63;;;5.93;;
27957;SDS011;15295;42.658;23.374;2022-09-29T16:49:52;12.77;;;6.88;;
27957;SDS011;15295;42.658;23.374;2022-09-29T16:52:26;16.65;;;8.75;;
27957;SDS011;15295;42.658;23.374;2022-09-29T16:57:49;20.77;;;11.63;;
27957;SDS011;15295;42.658;23.374;2022-09-29T17:00:19;7.25;;;4.85;;
27957;SDS011;15295;42.658;23.374;2022-09-29T17:02:44;13.02;;;4.72;;
27957;SDS011;15295;42.658;23.374;2022-09-29T17:05:10;8.45;;;4.68;;
27957;SDS011;15295;42.658;23.374;2022-09-29T17:07:38;7.40;;;4.88;;
27957;SDS011;15295;42.658;23.374;2022-09-29T17:10:11;10.75;;;5.35;;
27957;SDS011;15295;42.658;23.374;2022-09-29T17:12:45;10.25;;;6.07;;
27957;SDS011;15295;42.658;23.374;2022-09-29T17:15:14;10.88;;;5.97;;
27957;SDS011;15295;42.658;23.374;2022-09-29T17:22:48;13.52;;;6.45;;
27957;SDS011;15295;42.658;23.374;2022-09-29T17:25:13;12.68;;;6.57;;
27957;SDS011;15295;42.658;23.374;2022-09-29T17:27:39;17.90;;;7.93;;
27957;SDS011;15295;42.658;23.374;2022-09-29T17:30:31;10.85;;;5.97;;
27957;SDS011;15295;42.658;23.374;2022-09-29T17:33:08;9.82;;;4.90;;
27957;SDS011;15295;42.658;23.374;2022-09-29T17:35:39;9.75;;;4.88;;
27957;SDS011;15295;42.658;23.374;2022-09-29T17:38:13;12.77;;;6.20;;
27957;SDS011;15295;42.658;23.374;2022-09-29T17:40:59;10.02;;;5.95;;
27957;SDS011;15295;42.658;23.374;2022-09-29T17:43:49;15.90;;;6.03;;
27957;SDS011;15295;42.658;23.374;2022-09-29T17:46:15;10.13;;;4.75;;
27957;SDS011;15295;42.658;23.374;2022-09-29T17:48:41;10.98;;;5.53;;
27957;SDS011;15295;42.658;23.374;2022-09-29T17:51:14;10.55;;;5.45;;
27957;SDS011;15295;42.658;23.374;2022-09-29T17:53:45;12.50;;;6.60;;
27957;SDS011;15295;42.658;23.374;2022-09-29T18:11:52;13.85;;;6.60;;
27957;SDS011;15295;42.658;23.374;2022-09-29T18:16:56;9.60;;;5.45;;
27957;SDS011;15295;42.658;23.374;2022-09-29T18:19:22;8.60;;;5.72;;
27957;SDS011;15295;42.658;23.374;2022-09-29T18:21:48;15.38;;;7.18;;
27957;SDS011;15295;42.658;23.374;2022-09-29T18:24:14;11.45;;;7.55;;
27957;SDS011;15295;42.658;23.374;2022-09-29T18:26:39;12.95;;;7.43;;
27957;SDS011;15295;42.658;23.374;2022-09-29T18:29:13;12.05;;;6.10;;
27957;SDS011;15295;42.658;23.374;2022-09-29T18:34:18;10.68;;;6.70;;
27957;SDS011;15295;42.658;23.374;2022-09-29T18:36:44;11.68;;;7.18;;
27957;SDS011;15295;42.658;23.374;2022-09-29T18:39:10;8.52;;;6.32;;
27957;SDS011;15295;42.658;23.374;2022-09-29T18:41:43;11.05;;;6.35;;
27957;SDS011;15295;42.658;23.374;2022-09-29T18:44:12;9.70;;;5.32;;
27957;SDS011;15295;42.658;23.374;2022-09-29T18:46:39;9.38;;;5.60;;
27957;SDS011;15295;42.658;23.374;2022-09-29T18:49:05;7.20;;;5.43;;
27957;SDS011;15295;42.658;23.374;2022-09-29T18:51:32;8.15;;;5.88;;
27957;SDS011;15295;42.658;23.374;2022-09-29T18:53:59;16.70;;;10.70;;
27957;SDS011;15295;42.658;23.374;2022-09-29T18:56:31;13.45;;;6.47;;
27957;SDS011;15295;42.658;23.374;2022-09-29T18:59:00;12.40;;;5.50;;
27957;SDS011;15295;42.658;23.374;2022-09-29T19:01:31;11.50;;;6.55;;
27957;SDS011;15295;42.658;23.374;2022-09-29T19:03:57;14.55;;;7.75;;
27957;SDS011;15295;42.658;23.374;2022-09-29T19:06:23;11.93;;;6.13;;
27957;SDS011;15295;42.658;23.374;2022-09-29T19:08:48;13.80;;;7.82;;
27957;SDS011;15295;42.658;23.374;2022-09-29T19:11:25;23.52;;;13.73;;
27957;SDS011;15295;42.658;23.374;2022-09-29T19:13:55;18.58;;;12.05;;
27957;SDS011;15295;42.658;23.374;2022-09-29T19:16:21;12.70;;;6.50;;
27957;SDS011;15295;42.658;23.374;2022-09-29T19:18:47;11.98;;;6.70;;
27957;SDS011;15295;42.658;23.374;2022-09-29T19:21:16;13.07;;;7.72;;
27957;SDS011;15295;42.658;23.374;2022-09-29T19:23:48;9.93;;;7.10;;
27957;SDS011;15295;42.658;23.374;2022-09-29T19:26:14;13.65;;;8.88;;
27957;SDS011;15295;42.658;23.374;2022-09-29T19:28:42;23.60;;;15.77;;
27957;SDS011;15295;42.658;23.374;2022-09-29T19:31:14;26.45;;;17.85;;
27957;SDS011;15295;42.658;23.374;2022-09-29T19:33:45;27.08;;;16.25;;
27957;SDS011;15295;42.658;23.374;2022-09-29T19:36:15;25.88;;;18.20;;
27957;SDS011;15295;42.658;23.374;2022-09-29T19:38:42;29.40;;;17.77;;
27957;SDS011;15295;42.658;23.374;2022-09-29T19:41:13;27.48;;;18.38;;
27957;SDS011;15295;42.658;23.374;2022-09-29T19:43:43;39.30;;;19.98;;
27957;SDS011;15295;42.658;23.374;2022-09-29T19:46:09;25.00;;;17.05;;
27957;SDS011;15295;42.658;23.374;2022-09-29T19:48:36;30.20;;;18.60;;
27957;SDS011;15295;42.658;23.374;2022-09-29T19:51:01;26.83;;;17.05;;
27957;SDS011;15295;42.658;23.374;2022-09-29T19:53:45;28.80;;;17.42;;
27957;SDS011;15295;42.658;23.374;2022-09-29T19:56:11;30.38;;;19.58;;
27957;SDS011;15295;42.658;23.374;2022-09-29T19:58:37;27.17;;;20.17;;
27957;SDS011;15295;42.658;23.374;2022-09-29T20:01:07;28.67;;;16.45;;
27957;SDS011;15295;42.658;23.374;2022-09-29T20:03:35;30.65;;;18.15;;
27957;SDS011;15295;42.658;23.374;2022-09-29T20:06:02;27.00;;;16.83;;
27957;SDS011;15295;42.658;23.374;2022-09-29T20:08:30;22.80;;;15.77;;
27957;SDS011;15295;42.658;23.374;2022-09-29T20:11:04;24.73;;;17.25;;
27957;SDS011;15295;42.658;23.374;2022-09-29T20:13:30;23.15;;;14.73;;
27957;SDS011;15295;42.658;23.374;2022-09-29T20:15:56;19.33;;;12.45;;
27957;SDS011;15295;42.658;23.374;2022-09-29T20:18:21;25.67;;;17.55;;
27957;SDS011;15295;42.658;23.374;2022-09-29T20:20:47;27.13;;;17.00;;
27957;SDS011;15295;42.658;23.374;2022-09-29T20:23:15;20.92;;;13.57;;
27957;SDS011;15295;42.658;23.374;2022-09-29T20:25:41;18.52;;;11.90;;
27957;SDS011;15295;42.658;23.374;2022-09-29T20:28:06;24.55;;;15.73;;
27957;SDS011;15295;42.658;23.374;2022-09-29T20:30:33;23.48;;;14.20;;
27957;SDS011;15295;42.658;23.374;2022-09-29T20:32:58;20.92;;;13.98;;
27957;SDS011;15295;42.658;23.374;2022-09-29T20:35:24;22.83;;;14.38;;
27957;SDS011;15295;42.658;23.374;2022-09-29T20:37:49;22.05;;;14.25;;
27957;SDS011;15295;42.658;23.374;2022-09-29T20:40:15;19.65;;;11.07;;
27957;SDS011;15295;42.658;23.374;2022-09-29T20:42:40;18.35;;;11.95;;
27957;SDS011;15295;42.658;23.374;2022-09-29T20:45:06;21.58;;;12.80;;
27957;SDS011;15295;42.658;23.374;2022-09-29T20:47:33;20.83;;;12.27;;
27957;SDS011;15295;42.658;23.374;2022-09-29T20:50:00;19.08;;;12.25;;
27957;SDS011;15295;42.658;23.374;2022-09-29T20:52:26;20.88;;;13.10;;
27957;SDS011;15295;42.658;23.374;2022-09-29T20:54:52;16.52;;;11.13;;
27957;SDS011;15295;42.658;23.374;2022-09-29T20:57:18;20.10;;;12.05;;
27957;SDS011;15295;42.658;23.374;2022-09-29T20:59:44;21.00;;;11.93;;
27957;SDS011;15295;42.658;23.374;2022-09-29T21:02:10;22.50;;;13.10;;
27957;SDS011;15295;42.658;23.374;2022-09-29T21:04:39;17.13;;;11.88;;
27957;SDS011;15295;42.658;23.374;2022-09-29T21:07:06;19.13;;;11.18;;
27957;SDS011;15295;42.658;23.374;2022-09-29T21:09:51;17.95;;;12.25;;
27957;SDS011;15295;42.658;23.374;2022-09-29T21:12:17;22.42;;;12.60;;
27957;SDS011;15295;42.658;23.374;2022-09-29T21:14:43;18.45;;;11.77;;
27957;SDS011;15295;42.658;23.374;2022-09-29T21:17:08;18.00;;;11.40;;
27957;SDS011;15295;42.658;23.374;2022-09-29T21:19:34;19.80;;;11.43;;
27957;SDS011;15295;42.658;23.374;2022-09-29T21:21:59;18.80;;;11.20;;
27957;SDS011;15295;42.658;23.374;2022-09-29T21:24:25;20.83;;;11.70;;
27957;SDS011;15295;42.658;23.374;2022-09-29T21:26:50;23.00;;;11.30;;
27957;SDS011;15295;42.658;23.374;2022-09-29T21:29:16;19.05;;;11.05;;
27957;SDS011;15295;42.658;23.374;2022-09-29T21:31:43;20.52;;;12.30;;
27957;SDS011;15295;42.658;23.374;2022-09-29T21:34:13;19.90;;;12.68;;
27957;SDS011;15295;42.658;23.374;2022-09-29T21:36:39;15.75;;;11.40;;
27957;SDS011;15295;42.658;23.374;2022-09-29T21:39:04;19.27;;;11.93;;
27957;SDS011;15295;42.658;23.374;2022-09-29T21:41:31;19.45;;;12.20;;
27957;SDS011;15295;42.658;23.374;2022-09-29T21:43:59;24.20;;;13.20;;
27957;SDS011;15295;42.658;23.374;2022-09-29T21:46:28;24.45;;;13.63;;
27957;SDS011;15295;42.658;23.374;2022-09-29T21:48:56;21.65;;;14.57;;
27957;SDS011;15295;42.658;23.374;2022-09-29T21:51:27;20.35;;;14.15;;
27957;SDS011;15295;42.658;23.374;2022-09-29T21:53:55;22.88;;;14.77;;
27957;SDS011;15295;42.658;23.374;2022-09-29T21:56:23;22.60;;;15.25;;
27957;SDS011;15295;42.658;23.374;2022-09-29T21:58:51;20.88;;;14.40;;
27957;SDS011;15295;42.658;23.374;2022-09-29T22:01:18;22.17;;;15.85;;
27957;SDS011;15295;42.658;23.374;2022-09-29T22:03:45;25.63;;;15.32;;
27957;SDS011;15295;42.658;23.374;2022-09-29T22:06:16;19.50;;;13.52;;
27957;SDS011;15295;42.658;23.374;2022-09-29T22:08:46;23.55;;;13.93;;
27957;SDS011;15295;42.658;23.374;2022-09-29T22:11:14;21.98;;;13.80;;
27957;SDS011;15295;42.658;23.374;2022-09-29T22:13:42;21.50;;;15.15;;
27957;SDS011;15295;42.658;23.374;2022-09-29T22:16:09;22.77;;;15.02;;
27957;SDS011;15295;42.658;23.374;2022-09-29T22:18:39;24.73;;;15.00;;
27957;SDS011;15295;42.658;23.374;2022-09-29T22:21:06;20.60;;;13.57;;
27957;SDS011;15295;42.658;23.374;2022-09-29T22:23:35;21.63;;;13.43;;
27957;SDS011;15295;42.658;23.374;2022-09-29T22:26:01;22.08;;;13.93;;
27957;SDS011;15295;42.658;23.374;2022-09-29T22:28:27;21.17;;;14.27;;
27957;SDS011;15295;42.658;23.374;2022-09-29T22:30:54;22.30;;;14.13;;
27957;SDS011;15295;42.658;23.374;2022-09-29T22:33:26;23.65;;;14.18;;
27957;SDS011;15295;42.658;23.374;2022-09-29T22:35:55;21.92;;;14.90;;
27957;SDS011;15295;42.658;23.374;2022-09-29T22:38:21;26.65;;;15.45;;
27957;SDS011;15295;42.658;23.374;2022-09-29T22:40:48;19.73;;;14.27;;
27957;SDS011;15295;42.658;23.374;2022-09-29T22:43:14;24.20;;;15.65;;
27957;SDS011;15295;42.658;23.374;2022-09-29T22:45:40;21.85;;;14.35;;
27957;SDS011;15295;42.658;23.374;2022-09-29T22:48:09;20.45;;;14.20;;
27957;SDS011;15295;42.658;23.374;2022-09-29T22:50:35;23.48;;;15.02;;
27957;SDS011;15295;42.658;23.374;2022-09-29T22:53:00;27.83;;;15.75;;